Terminal Aerodrome Forecast
Issued by NWS Newport/Morehead City, NC

Home | Current Version | Previous Version | Text Only | Print | Product List | Glossary Off
Versions: 1 2 3 4 5 6 7 8 9 10 11 12 13 14 15 16 17

000
FTUS42 KMHX 210500
TAFEWN
TAF
KEWN 210520Z 2106/2206 02007KT 5SM -RA BKN007 OVC015
     FM210800 01005KT 3SM RA BKN004
     FM211300 33007KT 5SM -RA BR OVC010
     FM211700 33010KT P6SM SCT030 BKN100
     FM212300 28005KT P6SM SCT100=

USA.gov is the U.S. government's official web portal to all federal, state and local government web resources and services.